createdAt,value
2022-10-07T00:01:03.874Z,84.76
2022-10-07T00:03:33.101Z,82.99
2022-10-07T00:06:02.040Z,85.19
2022-10-07T00:08:30.472Z,81.86
2022-10-07T00:10:58.700Z,84.71
2022-10-07T00:13:26.460Z,84.16
2022-10-07T00:15:54.300Z,82.57
2022-10-07T00:18:22.391Z,84.40
2022-10-07T00:20:50.132Z,83.37
2022-10-07T00:23:17.931Z,83.44
2022-10-07T00:25:46.090Z,83.18
2022-10-07T00:28:13.881Z,84.13
2022-10-07T00:30:41.743Z,84.09
2022-10-07T00:33:11.262Z,82.00
2022-10-07T00:35:39.045Z,78.42
2022-10-07T00:38:06.724Z,80.08
2022-10-07T00:40:34.773Z,81.31
2022-10-07T00:43:19.445Z,77.51
2022-10-07T00:45:47.816Z,77.23
2022-10-07T00:48:20.064Z,77.12
2022-10-07T00:50:49.716Z,78.44
2022-10-07T00:53:17.827Z,76.95
2022-10-07T00:55:45.655Z,81.04
2022-10-07T00:58:14.044Z,82.30
2022-10-07T01:00:42.323Z,83.33
2022-10-07T01:03:10.174Z,80.41
2022-10-07T01:05:38.317Z,82.65
2022-10-07T01:08:06.184Z,80.98
2022-10-07T01:10:41.853Z,80.20
2022-10-07T01:13:27.197Z,80.58
2022-10-07T01:16:24.535Z,79.52
2022-10-07T01:19:10.107Z,79.98
2022-10-07T01:22:01.642Z,79.82
2022-10-07T01:24:33.474Z,82.90
2022-10-07T01:27:04.688Z,81.00
2022-10-07T01:29:42.407Z,80.03
2022-10-07T01:32:14.407Z,78.67
2022-10-07T01:34:43.075Z,80.75
2022-10-07T01:37:15.236Z,79.96
2022-10-07T01:39:49.036Z,79.35
2022-10-07T01:42:17.720Z,80.59
2022-10-07T01:44:48.764Z,80.09
2022-10-07T01:47:17.558Z,79.54
2022-10-07T01:49:46.145Z,83.21
2022-10-07T01:52:51.676Z,85.39
2022-10-07T01:55:58.347Z,82.44
2022-10-07T01:58:59.806Z,79.55
2022-10-07T02:01:57.337Z,79.09
2022-10-07T02:04:48.617Z,79.67
2022-10-07T02:07:26.136Z,82.44
2022-10-07T02:09:54.446Z,81.10
2022-10-07T02:12:31.362Z,82.52
2022-10-07T02:15:20.020Z,82.67
2022-10-07T02:17:54.286Z,81.72
2022-10-07T02:20:27.395Z,83.65
2022-10-07T02:22:59.047Z,80.50
2022-10-07T02:25:28.967Z,79.90
2022-10-07T02:27:57.838Z,79.70
2022-10-07T02:30:26.876Z,80.34
2022-10-07T02:32:57.524Z,82.99
2022-10-07T02:35:47.555Z,81.45
2022-10-07T02:38:17.995Z,81.55
2022-10-07T02:41:09.025Z,80.58
2022-10-07T02:43:46.898Z,79.75
2022-10-07T02:47:04.076Z,80.76
2022-10-07T02:49:38.268Z,80.32
2022-10-07T02:52:09.339Z,81.47
2022-10-07T02:55:02.156Z,81.43
2022-10-07T02:57:32.022Z,79.55
2022-10-07T03:00:01.308Z,79.10
2022-10-07T03:02:46.736Z,78.97
2022-10-07T03:05:19.394Z,81.52
2022-10-07T03:07:54.536Z,79.63
2022-10-07T03:10:22.808Z,79.00
2022-10-07T03:12:51.278Z,79.35
2022-10-07T03:15:20.378Z,79.66
2022-10-07T03:17:48.676Z,80.81
2022-10-07T03:20:16.631Z,79.80
2022-10-07T03:22:45.276Z,79.53
2022-10-07T03:25:14.836Z,79.08
2022-10-07T03:27:43.487Z,79.50
2022-10-07T03:30:12.378Z,79.63
2022-10-07T03:32:41.646Z,79.75
2022-10-07T03:35:10.765Z,81.24
2022-10-07T03:37:39.207Z,84.06
2022-10-07T03:40:09.179Z,85.67
2022-10-07T03:42:37.570Z,80.84
2022-10-07T03:45:06.907Z,79.54
2022-10-07T03:47:36.335Z,83.90
2022-10-07T03:50:05.007Z,83.83
2022-10-07T03:52:33.187Z,83.14
2022-10-07T03:55:01.566Z,84.98
2022-10-07T03:57:48.141Z,81.22
2022-10-07T04:00:23.529Z,82.11
2022-10-07T04:02:53.039Z,80.52
2022-10-07T04:05:21.978Z,81.73
2022-10-07T04:07:50.886Z,80.87
2022-10-07T04:10:20.068Z,80.12
2022-10-07T04:12:49.047Z,83.67
2022-10-07T04:15:17.356Z,81.94
2022-10-07T04:17:47.464Z,82.04
2022-10-07T04:20:17.008Z,83.81
2022-10-07T04:22:45.165Z,80.28
2022-10-07T04:25:31.496Z,80.14
2022-10-07T04:28:00.630Z,81.09
2022-10-07T04:30:33.959Z,82.14
2022-10-07T04:33:03.058Z,85.18
2022-10-07T04:35:31.337Z,83.78
2022-10-07T04:37:59.278Z,84.69
2022-10-07T04:40:27.794Z,82.17
2022-10-07T04:43:14.476Z,81.46
2022-10-07T04:45:42.796Z,81.37
2022-10-07T04:48:10.846Z,82.87
2022-10-07T04:50:39.461Z,80.49
2022-10-07T04:53:11.026Z,80.12
2022-10-07T04:55:40.297Z,80.36
2022-10-07T04:58:09.369Z,80.62
2022-10-07T05:00:48.637Z,80.99
2022-10-07T05:03:19.026Z,80.30
2022-10-07T05:05:52.699Z,80.44
2022-10-07T05:08:24.819Z,82.41
2022-10-07T05:10:57.747Z,82.72
2022-10-07T05:13:27.378Z,83.93
2022-10-07T05:16:00.616Z,84.02
2022-10-07T05:18:33.877Z,85.41
2022-10-07T05:21:07.788Z,83.45
2022-10-07T05:23:37.446Z,84.90
2022-10-07T05:26:10.666Z,85.37
2022-10-07T05:28:40.425Z,85.07
2022-10-07T05:31:12.160Z,83.19
2022-10-07T05:33:41.185Z,85.47
2022-10-07T05:36:10.107Z,83.91
2022-10-07T05:38:38.625Z,81.49
2022-10-07T05:41:08.610Z,82.45
2022-10-07T05:43:39.896Z,81.27
2022-10-07T05:46:11.931Z,82.63
2022-10-07T05:48:40.480Z,84.09
2022-10-07T05:51:09.146Z,79.53
2022-10-07T05:53:41.454Z,79.62
2022-10-07T05:56:12.839Z,80.60
2022-10-07T05:58:41.127Z,79.40
2022-10-07T06:01:14.846Z,77.33
2022-10-07T06:03:44.067Z,78.77
2022-10-07T06:06:12.620Z,74.02
2022-10-07T06:08:41.206Z,74.37
2022-10-07T06:11:33.669Z,73.45
2022-10-07T06:14:02.010Z,72.36
2022-10-07T06:16:30.217Z,71.68
2022-10-07T06:18:58.220Z,72.32
2022-10-07T06:21:28.383Z,71.73
2022-10-07T06:23:58.716Z,70.65
2022-10-07T06:26:27.237Z,70.34
2022-10-07T06:28:55.541Z,70.22
2022-10-07T06:31:25.984Z,70.11
2022-10-07T06:33:54.598Z,67.92
2022-10-07T06:36:23.446Z,69.31
2022-10-07T06:38:53.249Z,68.39
2022-10-07T06:41:22.237Z,67.13
2022-10-07T06:43:55.894Z,67.08
2022-10-07T06:46:25.862Z,67.19
2022-10-07T06:48:55.563Z,65.60
2022-10-07T06:51:24.577Z,68.95
2022-10-07T06:53:58.128Z,67.79
2022-10-07T06:56:27.558Z,69.08
2022-10-07T06:58:56.321Z,67.28
2022-10-07T07:01:26.966Z,65.02
2022-10-07T07:03:56.676Z,65.10
2022-10-07T07:06:25.928Z,67.60
2022-10-07T07:08:56.708Z,65.84
2022-10-07T07:11:37.765Z,66.22
2022-10-07T07:14:09.576Z,62.43
2022-10-07T07:16:40.151Z,62.12
2022-10-07T07:19:09.357Z,61.27
2022-10-07T07:21:47.680Z,61.32
2022-10-07T07:24:19.687Z,62.01
2022-10-07T07:26:49.312Z,61.30
2022-10-07T07:29:20.618Z,60.65
2022-10-07T07:31:51.206Z,60.02
2022-10-07T07:34:19.641Z,59.23
2022-10-07T07:36:51.387Z,58.75
2022-10-07T07:39:20.598Z,56.45
2022-10-07T07:41:51.137Z,55.24
2022-10-07T07:44:21.098Z,54.02
2022-10-07T07:46:53.739Z,54.71
2022-10-07T07:49:23.377Z,55.39
2022-10-07T07:51:51.331Z,55.94
2022-10-07T07:54:19.727Z,54.78
2022-10-07T07:56:48.440Z,54.10
2022-10-07T07:59:17.197Z,53.92
2022-10-07T08:01:48.102Z,52.42
2022-10-07T08:04:16.776Z,52.42
2022-10-07T08:06:45.718Z,51.98
2022-10-07T08:09:13.667Z,51.39
2022-10-07T08:11:46.096Z,52.86
2022-10-07T08:14:16.213Z,53.26
2022-10-07T08:16:45.210Z,53.14
2022-10-07T08:19:13.187Z,49.97
2022-10-07T08:21:41.767Z,48.66
2022-10-07T08:24:11.750Z,49.01
2022-10-07T08:26:40.241Z,48.84
2022-10-07T08:29:08.646Z,47.36
2022-10-07T08:31:37.517Z,46.70
2022-10-07T08:34:06.956Z,46.41
2022-10-07T08:36:35.904Z,44.54
2022-10-07T08:39:05.114Z,46.34
2022-10-07T08:41:43.217Z,45.76
2022-10-07T08:44:17.020Z,42.63
2022-10-07T08:46:51.579Z,42.81
2022-10-07T08:49:43.463Z,41.88
2022-10-07T08:52:51.278Z,41.60
2022-10-07T08:55:19.599Z,43.46
2022-10-07T08:58:08.684Z,40.23
2022-10-07T09:01:01.214Z,39.74
2022-10-07T09:04:02.581Z,41.88
2022-10-07T09:06:37.588Z,40.28
2022-10-07T09:09:15.265Z,42.49
2022-10-07T09:11:45.529Z,40.63
2022-10-07T09:14:33.306Z,39.38
2022-10-07T09:17:07.247Z,41.77
2022-10-07T09:19:46.428Z,37.39
2022-10-07T09:22:23.879Z,38.13
2022-10-07T09:24:56.181Z,39.37
2022-10-07T09:27:27.067Z,39.73
2022-10-07T09:29:54.910Z,38.38
2022-10-07T09:32:22.971Z,37.98
2022-10-07T09:34:52.645Z,36.75
2022-10-07T09:37:23.308Z,36.66
2022-10-07T09:39:53.659Z,36.16
2022-10-07T09:42:24.184Z,36.27
2022-10-07T09:44:54.746Z,38.97
2022-10-07T09:47:24.940Z,37.42
2022-10-07T09:49:57.050Z,36.64
2022-10-07T09:52:27.743Z,36.49
2022-10-07T09:54:58.839Z,36.90
2022-10-07T09:57:35.790Z,37.71
2022-10-07T10:00:12.989Z,36.19
2022-10-07T10:02:45.916Z,35.94
2022-10-07T10:05:35.404Z,37.69
2022-10-07T10:08:26.550Z,35.65
2022-10-07T10:11:23.908Z,35.58
2022-10-07T10:13:52.339Z,35.42
2022-10-07T10:16:26.319Z,33.27
2022-10-07T10:18:55.546Z,36.68
2022-10-07T10:21:30.337Z,37.06
2022-10-07T10:24:01.338Z,36.01
2022-10-07T10:26:48.040Z,35.42
2022-10-07T10:29:38.436Z,36.20
2022-10-07T10:32:44.214Z,35.19
2022-10-07T10:35:51.603Z,35.34
2022-10-07T10:38:33.357Z,35.25
2022-10-07T10:41:10.692Z,36.67
2022-10-07T10:44:20.790Z,35.25
2022-10-07T10:47:21.248Z,36.07
2022-10-07T10:50:03.085Z,34.98
2022-10-07T10:52:53.331Z,36.52
2022-10-07T10:55:31.353Z,33.91
2022-10-07T10:58:18.386Z,33.43
2022-10-07T11:00:49.299Z,35.00
2022-10-07T11:03:48.266Z,35.10
2022-10-07T11:06:18.540Z,34.08
2022-10-07T11:08:47.722Z,37.42
2022-10-07T11:11:20.615Z,34.95
2022-10-07T11:13:59.629Z,33.07
2022-10-07T11:16:39.537Z,34.15
2022-10-07T11:19:17.547Z,33.38
2022-10-07T11:21:47.849Z,34.08
2022-10-07T11:24:19.383Z,33.52
2022-10-07T11:26:56.754Z,30.74
2022-10-07T11:29:48.518Z,34.19
2022-10-07T11:32:28.507Z,31.03
2022-10-07T11:35:19.807Z,31.04
2022-10-07T11:38:13.128Z,31.75
2022-10-07T11:40:57.887Z,32.90
2022-10-07T11:43:29.185Z,32.83
2022-10-07T11:46:11.710Z,34.85
2022-10-07T11:48:43.045Z,32.88
2022-10-07T11:51:21.706Z,33.92
2022-10-07T11:53:52.802Z,33.19
2022-10-07T11:56:26.474Z,36.23
2022-10-07T11:59:02.819Z,36.61
2022-10-07T12:01:34.814Z,37.87
2022-10-07T12:04:21.536Z,37.54
2022-10-07T12:07:27.127Z,39.60
2022-10-07T12:10:18.334Z,35.96
2022-10-07T12:12:46.751Z,37.23
2022-10-07T12:15:32.386Z,38.19
2022-10-07T12:18:06.370Z,38.58
2022-10-07T12:20:35.477Z,39.05
2022-10-07T12:23:18.372Z,37.80
2022-10-07T12:25:59.980Z,38.83
2022-10-07T12:28:43.645Z,36.09
2022-10-07T12:31:15.071Z,38.31
2022-10-07T12:33:46.010Z,38.23
2022-10-07T12:36:24.078Z,36.49
2022-10-07T12:38:58.030Z,36.72
2022-10-07T12:41:30.857Z,38.66
2022-10-07T12:44:08.451Z,38.61
2022-10-07T12:46:42.302Z,38.00
2022-10-07T12:49:32.560Z,40.42
2022-10-07T12:52:05.768Z,39.90
2022-10-07T12:54:38.687Z,40.96
2022-10-07T12:57:16.289Z,41.72
2022-10-07T13:00:02.319Z,42.49
2022-10-07T13:02:49.644Z,40.80
2022-10-07T13:05:58.936Z,40.91
2022-10-07T13:08:36.326Z,41.92
2022-10-07T13:11:17.495Z,43.12
2022-10-07T13:13:56.352Z,42.25
2022-10-07T13:16:47.305Z,43.17
2022-10-07T13:19:27.639Z,43.82
2022-10-07T13:22:16.128Z,43.75
2022-10-07T13:24:50.182Z,43.39
2022-10-07T13:27:20.437Z,42.10
2022-10-07T13:29:48.641Z,41.89
2022-10-07T13:32:18.538Z,42.51
2022-10-07T13:34:46.704Z,41.70
2022-10-07T13:37:27.758Z,42.72
2022-10-07T13:39:56.656Z,43.45
2022-10-07T13:42:28.423Z,42.04
2022-10-07T13:45:03.050Z,42.62
2022-10-07T13:47:34.157Z,41.95
2022-10-07T13:50:02.809Z,44.52
2022-10-07T13:52:35.137Z,42.42
2022-10-07T13:55:03.709Z,43.36
2022-10-07T13:57:31.943Z,44.13
2022-10-07T14:00:00.468Z,44.35
2022-10-07T14:02:28.738Z,43.30
2022-10-07T14:05:14.697Z,42.74
2022-10-07T14:07:42.680Z,43.63
2022-10-07T14:10:12.820Z,43.38
2022-10-07T14:12:47.776Z,43.80
2022-10-07T14:15:23.398Z,44.55
2022-10-07T14:17:55.467Z,44.49
2022-10-07T14:20:37.247Z,46.00
2022-10-07T14:23:17.426Z,46.41
2022-10-07T14:25:48.430Z,48.40
2022-10-07T14:28:21.570Z,46.16
2022-10-07T14:31:40.681Z,44.44
2022-10-07T14:34:38.297Z,45.80
2022-10-07T14:37:10.667Z,48.47
2022-10-07T14:39:42.685Z,48.31
2022-10-07T14:42:14.089Z,47.39
2022-10-07T14:44:45.213Z,47.35
2022-10-07T14:47:16.365Z,46.57
2022-10-07T14:49:44.895Z,47.99
2022-10-07T14:52:33.637Z,48.25
2022-10-07T14:55:04.988Z,50.32
2022-10-07T14:57:34.277Z,50.16
2022-10-07T15:00:02.143Z,51.70
2022-10-07T15:02:30.578Z,51.47
2022-10-07T15:04:58.770Z,51.52
2022-10-07T15:07:26.908Z,50.88
2022-10-07T15:09:54.729Z,49.73
2022-10-07T15:12:22.936Z,51.48
2022-10-07T15:14:50.839Z,50.62
2022-10-07T15:17:18.657Z,51.44
2022-10-07T15:19:46.898Z,50.72
2022-10-07T15:22:15.107Z,51.68
2022-10-07T15:24:43.483Z,52.06
2022-10-07T15:27:11.645Z,52.24
2022-10-07T15:29:39.536Z,51.94
2022-10-07T15:32:08.291Z,53.02
2022-10-07T15:34:36.657Z,52.59
2022-10-07T15:37:04.691Z,52.93
2022-10-07T15:39:36.206Z,53.47
2022-10-07T15:42:09.997Z,53.09
2022-10-07T15:44:37.907Z,53.88
2022-10-07T15:47:06.357Z,53.98
2022-10-07T15:49:36.318Z,54.75
2022-10-07T15:52:04.074Z,54.89
2022-10-07T15:54:32.159Z,53.91
2022-10-07T15:57:00.389Z,55.09
2022-10-07T15:59:28.392Z,55.48
2022-10-07T16:01:56.361Z,56.02
2022-10-07T16:04:24.525Z,56.95
2022-10-07T16:06:52.856Z,56.52
2022-10-07T16:09:22.221Z,56.54
2022-10-07T16:11:51.699Z,57.12
2022-10-07T16:14:19.501Z,57.52
2022-10-07T16:16:47.536Z,58.14
2022-10-07T16:19:15.688Z,57.27
2022-10-07T16:21:43.837Z,59.13
2022-10-07T16:24:16.829Z,60.68
2022-10-07T16:26:46.098Z,59.97
2022-10-07T16:29:34.401Z,59.22
2022-10-07T16:32:03.837Z,61.42
2022-10-07T16:34:31.829Z,59.75
2022-10-07T16:36:59.798Z,59.84
2022-10-07T16:39:28.068Z,60.11
2022-10-07T16:41:56.747Z,60.69
2022-10-07T16:44:25.208Z,60.61
2022-10-07T16:46:57.099Z,61.10
2022-10-07T16:49:26.376Z,63.68
2022-10-07T16:51:54.819Z,63.44
2022-10-07T16:54:22.858Z,63.60
2022-10-07T16:56:52.619Z,63.66
2022-10-07T16:59:23.895Z,63.16
2022-10-07T17:01:55.027Z,65.94
2022-10-07T17:04:24.868Z,63.34
2022-10-07T17:06:53.428Z,64.38
2022-10-07T17:09:22.255Z,64.99
2022-10-07T17:11:50.478Z,67.07
2022-10-07T17:14:20.126Z,66.35
2022-10-07T17:16:50.220Z,65.63
2022-10-07T17:19:20.646Z,67.09
2022-10-07T17:21:49.647Z,66.09
2022-10-07T17:24:19.366Z,65.89
2022-10-07T17:26:48.337Z,68.05
2022-10-07T17:29:20.858Z,66.41
2022-10-07T17:31:51.080Z,69.10
2022-10-07T17:34:20.838Z,67.74
2022-10-07T17:36:49.669Z,67.03
2022-10-07T17:39:19.467Z,67.16
2022-10-07T17:41:47.417Z,67.32
2022-10-07T17:44:15.707Z,68.56
2022-10-07T17:46:43.756Z,70.78
2022-10-07T17:49:15.457Z,69.10
2022-10-07T17:51:44.197Z,68.61
2022-10-07T17:54:13.695Z,69.57
2022-10-07T17:56:46.287Z,69.85
2022-10-07T17:59:14.639Z,69.52
2022-10-07T18:01:45.248Z,70.48
2022-10-07T18:04:19.878Z,71.27
2022-10-07T18:06:50.384Z,70.83
2022-10-07T18:09:19.636Z,69.64
2022-10-07T18:12:06.145Z,69.29
2022-10-07T18:14:54.189Z,70.35
2022-10-07T18:17:23.122Z,71.21
2022-10-07T18:19:51.297Z,71.75
2022-10-07T18:22:19.779Z,72.79
2022-10-07T18:24:47.821Z,72.06
2022-10-07T18:27:16.076Z,71.83
2022-10-07T18:29:44.456Z,72.88
2022-10-07T18:32:12.166Z,75.46
2022-10-07T18:34:40.395Z,76.91
2022-10-07T18:37:08.334Z,77.18
2022-10-07T18:39:36.125Z,74.58
2022-10-07T18:42:04.731Z,75.97
2022-10-07T18:44:32.747Z,74.66
2022-10-07T18:47:00.618Z,77.18
2022-10-07T18:49:28.957Z,78.87
2022-10-07T18:51:56.932Z,78.35
2022-10-07T18:54:24.947Z,77.22
2022-10-07T18:56:53.296Z,79.49
2022-10-07T18:59:21.886Z,77.52
2022-10-07T19:01:51.036Z,78.12
2022-10-07T19:04:22.589Z,76.29
2022-10-07T19:06:50.927Z,74.46
2022-10-07T19:09:21.006Z,75.64
2022-10-07T19:11:52.566Z,73.97
2022-10-07T19:14:20.966Z,74.58
2022-10-07T19:16:49.608Z,73.97
2022-10-07T19:19:18.837Z,73.75
2022-10-07T19:22:01.224Z,75.85
2022-10-07T19:24:52.716Z,74.77
2022-10-07T19:27:20.976Z,77.31
2022-10-07T19:29:49.537Z,79.24
2022-10-07T19:32:17.330Z,78.27
2022-10-07T19:34:45.356Z,78.05
2022-10-07T19:37:13.216Z,76.14
2022-10-07T19:39:41.077Z,77.68
2022-10-07T19:42:09.156Z,79.39
2022-10-07T19:44:38.738Z,78.92
2022-10-07T19:47:07.024Z,77.91
2022-10-07T19:49:37.854Z,77.75
2022-10-07T19:52:05.561Z,77.59
2022-10-07T19:54:36.067Z,77.78
2022-10-07T19:57:04.424Z,79.10
2022-10-07T19:59:32.351Z,80.56
2022-10-07T20:02:01.263Z,76.97
2022-10-07T20:04:29.626Z,75.76
2022-10-07T20:06:58.946Z,74.76
2022-10-07T20:09:26.786Z,76.64
2022-10-07T20:11:56.086Z,76.48
2022-10-07T20:14:24.227Z,75.75
2022-10-07T20:16:52.296Z,79.67
2022-10-07T20:19:20.787Z,76.14
2022-10-07T20:21:48.638Z,77.44
2022-10-07T20:24:17.138Z,76.83
2022-10-07T20:26:46.491Z,76.48
2022-10-07T20:29:16.270Z,76.13
2022-10-07T20:31:44.357Z,79.66
2022-10-07T20:34:16.005Z,82.66
2022-10-07T20:36:44.048Z,81.99
2022-10-07T20:39:37.629Z,80.33
2022-10-07T20:42:21.503Z,81.04
2022-10-07T20:44:50.698Z,77.83
2022-10-07T20:47:19.712Z,80.04
2022-10-07T20:49:48.748Z,79.03
2022-10-07T20:52:21.852Z,77.58
2022-10-07T20:54:50.309Z,76.31
2022-10-07T20:57:21.645Z,78.54
2022-10-07T20:59:50.236Z,79.53
2022-10-07T21:02:20.050Z,78.18
2022-10-07T21:04:48.286Z,78.51
2022-10-07T21:07:17.628Z,77.83
2022-10-07T21:09:46.923Z,77.90
2022-10-07T21:12:17.055Z,78.95
2022-10-07T21:14:47.211Z,79.41
2022-10-07T21:17:15.376Z,77.60
2022-10-07T21:19:43.274Z,78.40
2022-10-07T21:22:11.326Z,78.54
2022-10-07T21:24:39.062Z,81.36
2022-10-07T21:27:08.716Z,79.51
2022-10-07T21:29:40.710Z,78.61
2022-10-07T21:32:10.687Z,78.81
2022-10-07T21:34:38.858Z,80.58
2022-10-07T21:37:06.928Z,78.11
2022-10-07T21:39:34.757Z,79.71
2022-10-07T21:42:03.368Z,82.04
2022-10-07T21:44:33.563Z,79.34
2022-10-07T21:47:01.480Z,79.40
2022-10-07T21:49:29.577Z,76.92
2022-10-07T21:51:57.409Z,76.87
2022-10-07T21:54:25.436Z,76.76
2022-10-07T21:56:53.457Z,78.42
2022-10-07T21:59:21.256Z,81.62
2022-10-07T22:01:49.109Z,79.62
2022-10-07T22:04:18.676Z,79.74
2022-10-07T22:07:05.137Z,78.72
2022-10-07T22:09:33.591Z,78.56
2022-10-07T22:12:01.436Z,78.24
2022-10-07T22:14:29.321Z,78.52
2022-10-07T22:16:57.430Z,78.71
2022-10-07T22:19:25.439Z,82.25
2022-10-07T22:21:53.339Z,81.00
2022-10-07T22:24:21.503Z,80.62
2022-10-07T22:26:51.261Z,81.22
2022-10-07T22:29:20.938Z,79.35
2022-10-07T22:31:49.099Z,80.05
2022-10-07T22:34:36.080Z,80.24
2022-10-07T22:37:05.350Z,84.24
2022-10-07T22:39:33.200Z,83.31
2022-10-07T22:42:03.926Z,79.84
2022-10-07T22:44:32.036Z,79.71
2022-10-07T22:46:59.868Z,78.19
2022-10-07T22:49:30.009Z,83.42
2022-10-07T22:52:00.197Z,80.04
2022-10-07T22:54:28.681Z,78.47
2022-10-07T22:56:56.496Z,78.83
2022-10-07T22:59:24.686Z,78.88
2022-10-07T23:01:52.588Z,79.28
2022-10-07T23:04:21.810Z,79.48
2022-10-07T23:06:49.949Z,78.99
2022-10-07T23:09:17.764Z,84.01
2022-10-07T23:11:46.029Z,80.89
2022-10-07T23:14:14.257Z,81.79
2022-10-07T23:16:42.586Z,81.61
2022-10-07T23:19:10.517Z,79.01
2022-10-07T23:21:38.670Z,78.64
2022-10-07T23:24:08.396Z,78.82
2022-10-07T23:26:36.634Z,78.47
2022-10-07T23:29:05.478Z,81.02
2022-10-07T23:31:33.810Z,80.68
2022-10-07T23:34:03.148Z,78.08
2022-10-07T23:36:31.672Z,78.00
2022-10-07T23:39:00.558Z,79.09
2022-10-07T23:41:30.450Z,78.04
2022-10-07T23:44:00.351Z,77.54
2022-10-07T23:46:29.378Z,79.58
2022-10-07T23:48:57.129Z,79.01
2022-10-07T23:51:28.010Z,80.29
2022-10-07T23:53:56.790Z,80.71
2022-10-07T23:56:25.027Z,80.12
2022-10-07T23:58:53.068Z,79.27
